sensor_id;sensor_type;location;lat;lon;timestamp;temperature;humidity
22192;DHT22;11261;52.456;10.850;2022-12-07T00:01:19;3.50;99.90
22192;DHT22;11261;52.456;10.850;2022-12-07T00:03:49;3.50;99.90
22192;DHT22;11261;52.456;10.850;2022-12-07T00:06:18;3.50;99.90
22192;DHT22;11261;52.456;10.850;2022-12-07T00:08:48;3.50;99.90
22192;DHT22;11261;52.456;10.850;2022-12-07T00:11:18;3.50;99.90
22192;DHT22;11261;52.456;10.850;2022-12-07T00:13:47;3.50;99.90
22192;DHT22;11261;52.456;10.850;2022-12-07T00:16:17;3.50;99.90
22192;DHT22;11261;52.456;10.850;2022-12-07T00:18:46;3.60;99.90
22192;DHT22;11261;52.456;10.850;2022-12-07T00:21:16;3.60;99.90
22192;DHT22;11261;52.456;10.850;2022-12-07T00:23:45;3.60;99.90
22192;DHT22;11261;52.456;10.850;2022-12-07T00:26:16;3.60;99.90
22192;DHT22;11261;52.456;10.850;2022-12-07T00:28:45;3.60;99.90
22192;DHT22;11261;52.456;10.850;2022-12-07T00:31:16;3.60;99.90
22192;DHT22;11261;52.456;10.850;2022-12-07T00:33:45;3.60;99.90
22192;DHT22;11261;52.456;10.850;2022-12-07T00:36:15;3.60;99.90
22192;DHT22;11261;52.456;10.850;2022-12-07T00:38:50;3.70;99.90
22192;DHT22;11261;52.456;10.850;2022-12-07T00:41:21;3.60;99.90
22192;DHT22;11261;52.456;10.850;2022-12-07T00:43:50;3.60;99.90
22192;DHT22;11261;52.456;10.850;2022-12-07T00:46:20;3.60;99.90
22192;DHT22;11261;52.456;10.850;2022-12-07T00:48:49;3.60;99.90
22192;DHT22;11261;52.456;10.850;2022-12-07T00:51:19;3.70;99.90
22192;DHT22;11261;52.456;10.850;2022-12-07T00:53:48;3.70;99.90
22192;DHT22;11261;52.456;10.850;2022-12-07T00:56:20;3.60;99.90
22192;DHT22;11261;52.456;10.850;2022-12-07T00:58:52;3.70;99.90
22192;DHT22;11261;52.456;10.850;2022-12-07T01:01:20;3.60;99.90
22192;DHT22;11261;52.456;10.850;2022-12-07T01:03:49;3.70;99.90
22192;DHT22;11261;52.456;10.850;2022-12-07T01:06:19;3.80;99.90
22192;DHT22;11261;52.456;10.850;2022-12-07T01:08:48;3.70;99.90
22192;DHT22;11261;52.456;10.850;2022-12-07T01:11:17;3.70;99.90
22192;DHT22;11261;52.456;10.850;2022-12-07T01:13:48;3.80;99.90
22192;DHT22;11261;52.456;10.850;2022-12-07T01:16:19;3.80;99.90
22192;DHT22;11261;52.456;10.850;2022-12-07T01:18:50;3.80;99.90
22192;DHT22;11261;52.456;10.850;2022-12-07T01:21:20;3.80;99.90
22192;DHT22;11261;52.456;10.850;2022-12-07T01:23:49;3.70;99.90
22192;DHT22;11261;52.456;10.850;2022-12-07T01:26:19;3.80;99.90
22192;DHT22;11261;52.456;10.850;2022-12-07T01:28:48;3.80;99.90
22192;DHT22;11261;52.456;10.850;2022-12-07T01:31:19;3.80;99.90
22192;DHT22;11261;52.456;10.850;2022-12-07T01:33:49;3.90;99.90
22192;DHT22;11261;52.456;10.850;2022-12-07T01:36:20;3.90;99.90
22192;DHT22;11261;52.456;10.850;2022-12-07T01:38:50;3.80;99.90
22192;DHT22;11261;52.456;10.850;2022-12-07T01:41:19;3.80;99.90
22192;DHT22;11261;52.456;10.850;2022-12-07T01:44:08;3.80;99.90
22192;DHT22;11261;52.456;10.850;2022-12-07T01:46:39;3.90;99.90
22192;DHT22;11261;52.456;10.850;2022-12-07T01:49:10;3.90;99.90
22192;DHT22;11261;52.456;10.850;2022-12-07T01:51:41;3.90;99.90
22192;DHT22;11261;52.456;10.850;2022-12-07T01:54:11;3.90;99.90
22192;DHT22;11261;52.456;10.850;2022-12-07T01:56:42;3.90;99.90
22192;DHT22;11261;52.456;10.850;2022-12-07T01:59:15;4.00;99.90
22192;DHT22;11261;52.456;10.850;2022-12-07T02:01:45;4.00;99.90
22192;DHT22;11261;52.456;10.850;2022-12-07T02:04:14;3.90;99.90
22192;DHT22;11261;52.456;10.850;2022-12-07T02:06:43;4.00;99.90
22192;DHT22;11261;52.456;10.850;2022-12-07T02:09:12;4.00;99.90
22192;DHT22;11261;52.456;10.850;2022-12-07T02:11:40;4.00;99.90
22192;DHT22;11261;52.456;10.850;2022-12-07T02:14:09;4.00;99.90
22192;DHT22;11261;52.456;10.850;2022-12-07T02:16:48;4.00;99.90
22192;DHT22;11261;52.456;10.850;2022-12-07T02:25:42;4.10;99.90
22192;DHT22;11261;52.456;10.850;2022-12-07T02:28:21;4.10;99.90
22192;DHT22;11261;52.456;10.850;2022-12-07T02:31:01;4.20;99.90
22192;DHT22;11261;52.456;10.850;2022-12-07T02:33:35;4.20;99.90
22192;DHT22;11261;52.456;10.850;2022-12-07T02:36:08;4.20;99.90
22192;DHT22;11261;52.456;10.850;2022-12-07T02:38:43;4.20;99.90
22192;DHT22;11261;52.456;10.850;2022-12-07T02:41:16;4.20;99.90
22192;DHT22;11261;52.456;10.850;2022-12-07T02:43:50;4.20;99.90
22192;DHT22;11261;52.456;10.850;2022-12-07T02:46:23;4.20;99.90
22192;DHT22;11261;52.456;10.850;2022-12-07T02:48:54;4.20;99.90
22192;DHT22;11261;52.456;10.850;2022-12-07T02:51:22;4.20;99.90
22192;DHT22;11261;52.456;10.850;2022-12-07T02:53:51;4.20;99.90
22192;DHT22;11261;52.456;10.850;2022-12-07T02:56:26;4.20;99.90
22192;DHT22;11261;52.456;10.850;2022-12-07T02:59:05;4.20;99.90
22192;DHT22;11261;52.456;10.850;2022-12-07T03:01:41;4.30;99.90
22192;DHT22;11261;52.456;10.850;2022-12-07T03:04:27;4.30;99.90
22192;DHT22;11261;52.456;10.850;2022-12-07T03:07:01;4.20;99.90
22192;DHT22;11261;52.456;10.850;2022-12-07T03:09:37;4.30;99.90
22192;DHT22;11261;52.456;10.850;2022-12-07T03:12:10;4.40;99.90
22192;DHT22;11261;52.456;10.850;2022-12-07T03:14:44;4.30;99.90
22192;DHT22;11261;52.456;10.850;2022-12-07T03:17:18;4.30;99.90
22192;DHT22;11261;52.456;10.850;2022-12-07T03:19:51;4.30;99.90
22192;DHT22;11261;52.456;10.850;2022-12-07T03:22:21;4.30;99.90
22192;DHT22;11261;52.456;10.850;2022-12-07T03:24:55;4.30;99.90
22192;DHT22;11261;52.456;10.850;2022-12-07T03:27:26;4.30;99.90
22192;DHT22;11261;52.456;10.850;2022-12-07T03:29:59;4.40;99.90
22192;DHT22;11261;52.456;10.850;2022-12-07T03:32:33;4.30;99.90
22192;DHT22;11261;52.456;10.850;2022-12-07T03:35:05;4.40;99.90
22192;DHT22;11261;52.456;10.850;2022-12-07T03:37:39;4.30;99.90
22192;DHT22;11261;52.456;10.850;2022-12-07T03:40:14;4.40;99.90
22192;DHT22;11261;52.456;10.850;2022-12-07T03:42:44;4.30;99.90
22192;DHT22;11261;52.456;10.850;2022-12-07T03:45:13;4.40;99.90
22192;DHT22;11261;52.456;10.850;2022-12-07T03:47:47;4.30;99.90
22192;DHT22;11261;52.456;10.850;2022-12-07T03:50:24;4.40;99.90
22192;DHT22;11261;52.456;10.850;2022-12-07T03:52:55;4.40;99.90
22192;DHT22;11261;52.456;10.850;2022-12-07T03:55:28;4.40;99.90
22192;DHT22;11261;52.456;10.850;2022-12-07T03:58:00;4.50;99.90
22192;DHT22;11261;52.456;10.850;2022-12-07T04:00:30;4.40;99.90
22192;DHT22;11261;52.456;10.850;2022-12-07T04:02:59;4.30;99.90
22192;DHT22;11261;52.456;10.850;2022-12-07T04:05:28;4.30;99.90
22192;DHT22;11261;52.456;10.850;2022-12-07T04:07:56;4.40;99.90
22192;DHT22;11261;52.456;10.850;2022-12-07T04:10:24;4.50;99.90
22192;DHT22;11261;52.456;10.850;2022-12-07T04:12:52;4.30;99.90
22192;DHT22;11261;52.456;10.850;2022-12-07T04:15:20;4.40;99.90
22192;DHT22;11261;52.456;10.850;2022-12-07T04:17:48;4.40;99.90
22192;DHT22;11261;52.456;10.850;2022-12-07T04:20:18;4.40;99.90
22192;DHT22;11261;52.456;10.850;2022-12-07T04:22:47;4.40;99.90
22192;DHT22;11261;52.456;10.850;2022-12-07T04:25:15;4.40;99.90
22192;DHT22;11261;52.456;10.850;2022-12-07T04:27:43;4.40;99.90
22192;DHT22;11261;52.456;10.850;2022-12-07T04:30:12;4.40;99.90
22192;DHT22;11261;52.456;10.850;2022-12-07T04:32:40;4.40;99.90
22192;DHT22;11261;52.456;10.850;2022-12-07T04:35:08;4.40;99.90
22192;DHT22;11261;52.456;10.850;2022-12-07T04:37:38;4.40;99.90
22192;DHT22;11261;52.456;10.850;2022-12-07T04:40:07;4.40;99.90
22192;DHT22;11261;52.456;10.850;2022-12-07T04:42:38;4.40;99.90
22192;DHT22;11261;52.456;10.850;2022-12-07T04:45:07;4.40;99.90
22192;DHT22;11261;52.456;10.850;2022-12-07T04:47:35;4.40;99.90
22192;DHT22;11261;52.456;10.850;2022-12-07T04:50:05;4.40;99.90
22192;DHT22;11261;52.456;10.850;2022-12-07T04:52:33;4.40;99.90
22192;DHT22;11261;52.456;10.850;2022-12-07T04:55:03;4.40;99.90
22192;DHT22;11261;52.456;10.850;2022-12-07T04:57:31;4.40;99.90
22192;DHT22;11261;52.456;10.850;2022-12-07T04:59:59;4.40;99.90
22192;DHT22;11261;52.456;10.850;2022-12-07T05:02:28;4.40;99.90
22192;DHT22;11261;52.456;10.850;2022-12-07T05:04:56;4.30;99.90
22192;DHT22;11261;52.456;10.850;2022-12-07T05:07:25;4.40;99.90
22192;DHT22;11261;52.456;10.850;2022-12-07T05:09:53;4.40;99.90
22192;DHT22;11261;52.456;10.850;2022-12-07T05:12:22;4.40;99.90
22192;DHT22;11261;52.456;10.850;2022-12-07T05:14:50;4.40;99.90
22192;DHT22;11261;52.456;10.850;2022-12-07T05:17:18;4.40;99.90
22192;DHT22;11261;52.456;10.850;2022-12-07T05:19:48;4.40;99.90
22192;DHT22;11261;52.456;10.850;2022-12-07T05:22:16;4.40;99.90
22192;DHT22;11261;52.456;10.850;2022-12-07T05:24:44;4.40;99.90
22192;DHT22;11261;52.456;10.850;2022-12-07T05:27:12;4.30;99.90
22192;DHT22;11261;52.456;10.850;2022-12-07T05:29:42;4.30;99.90
22192;DHT22;11261;52.456;10.850;2022-12-07T05:32:10;4.40;99.90
22192;DHT22;11261;52.456;10.850;2022-12-07T05:34:38;4.30;99.90
22192;DHT22;11261;52.456;10.850;2022-12-07T05:37:06;4.30;99.90
22192;DHT22;11261;52.456;10.850;2022-12-07T05:39:34;4.30;99.90
22192;DHT22;11261;52.456;10.850;2022-12-07T05:42:05;4.30;99.90
22192;DHT22;11261;52.456;10.850;2022-12-07T05:44:45;4.20;99.90
22192;DHT22;11261;52.456;10.850;2022-12-07T05:47:14;4.40;99.90
22192;DHT22;11261;52.456;10.850;2022-12-07T05:49:43;4.30;99.90
22192;DHT22;11261;52.456;10.850;2022-12-07T05:52:11;4.20;99.90
22192;DHT22;11261;52.456;10.850;2022-12-07T05:54:39;4.20;99.90
22192;DHT22;11261;52.456;10.850;2022-12-07T05:57:07;4.20;99.90
22192;DHT22;11261;52.456;10.850;2022-12-07T05:59:35;4.20;99.90
22192;DHT22;11261;52.456;10.850;2022-12-07T06:02:05;4.20;99.90
22192;DHT22;11261;52.456;10.850;2022-12-07T06:04:37;4.20;99.90
22192;DHT22;11261;52.456;10.850;2022-12-07T06:07:06;4.20;99.90
22192;DHT22;11261;52.456;10.850;2022-12-07T06:09:35;4.20;99.90
22192;DHT22;11261;52.456;10.850;2022-12-07T06:12:03;4.20;99.90
22192;DHT22;11261;52.456;10.850;2022-12-07T06:14:50;4.10;99.90
22192;DHT22;11261;52.456;10.850;2022-12-07T06:17:19;4.10;99.90
22192;DHT22;11261;52.456;10.850;2022-12-07T06:19:47;4.20;99.90
22192;DHT22;11261;52.456;10.850;2022-12-07T06:22:15;4.10;99.90
22192;DHT22;11261;52.456;10.850;2022-12-07T06:24:44;4.10;99.90
22192;DHT22;11261;52.456;10.850;2022-12-07T06:27:12;4.00;99.90
22192;DHT22;11261;52.456;10.850;2022-12-07T06:29:41;4.00;99.90
22192;DHT22;11261;52.456;10.850;2022-12-07T06:32:09;4.10;99.90
22192;DHT22;11261;52.456;10.850;2022-12-07T06:34:39;4.00;99.90
22192;DHT22;11261;52.456;10.850;2022-12-07T06:37:08;4.00;99.90
22192;DHT22;11261;52.456;10.850;2022-12-07T06:39:36;4.10;99.90
22192;DHT22;11261;52.456;10.850;2022-12-07T06:42:05;4.10;99.90
22192;DHT22;11261;52.456;10.850;2022-12-07T06:44:33;4.10;99.90
22192;DHT22;11261;52.456;10.850;2022-12-07T06:47:01;4.00;99.90
22192;DHT22;11261;52.456;10.850;2022-12-07T06:49:51;3.90;99.90
22192;DHT22;11261;52.456;10.850;2022-12-07T06:52:19;4.10;99.90
22192;DHT22;11261;52.456;10.850;2022-12-07T06:54:47;4.00;99.90
22192;DHT22;11261;52.456;10.850;2022-12-07T06:57:15;4.00;99.90
22192;DHT22;11261;52.456;10.850;2022-12-07T06:59:43;3.90;99.90
22192;DHT22;11261;52.456;10.850;2022-12-07T07:02:11;3.90;99.90
22192;DHT22;11261;52.456;10.850;2022-12-07T07:04:39;3.80;99.90
22192;DHT22;11261;52.456;10.850;2022-12-07T07:07:09;3.90;99.90
22192;DHT22;11261;52.456;10.850;2022-12-07T07:09:37;3.90;99.90
22192;DHT22;11261;52.456;10.850;2022-12-07T07:12:06;3.90;99.90
22192;DHT22;11261;52.456;10.850;2022-12-07T07:14:34;4.00;99.90
22192;DHT22;11261;52.456;10.850;2022-12-07T07:17:02;4.00;99.90
22192;DHT22;11261;52.456;10.850;2022-12-07T07:19:30;4.00;99.90
22192;DHT22;11261;52.456;10.850;2022-12-07T07:21:59;4.00;99.90
22192;DHT22;11261;52.456;10.850;2022-12-07T07:24:28;4.00;99.90
22192;DHT22;11261;52.456;10.850;2022-12-07T07:26:56;3.90;99.90
22192;DHT22;11261;52.456;10.850;2022-12-07T07:29:24;4.00;99.90
22192;DHT22;11261;52.456;10.850;2022-12-07T07:31:52;4.00;99.90
22192;DHT22;11261;52.456;10.850;2022-12-07T07:34:21;4.00;99.90
22192;DHT22;11261;52.456;10.850;2022-12-07T07:36:49;4.00;99.90
22192;DHT22;11261;52.456;10.850;2022-12-07T07:39:17;4.10;99.90
22192;DHT22;11261;52.456;10.850;2022-12-07T07:41:46;4.00;99.90
22192;DHT22;11261;52.456;10.850;2022-12-07T07:44:14;4.00;99.90
22192;DHT22;11261;52.456;10.850;2022-12-07T07:46:42;4.10;99.90
22192;DHT22;11261;52.456;10.850;2022-12-07T07:49:11;4.10;99.90
22192;DHT22;11261;52.456;10.850;2022-12-07T07:51:39;4.10;99.90
22192;DHT22;11261;52.456;10.850;2022-12-07T07:54:07;4.10;99.90
22192;DHT22;11261;52.456;10.850;2022-12-07T07:56:35;4.00;99.90
22192;DHT22;11261;52.456;10.850;2022-12-07T07:59:04;4.10;99.90
22192;DHT22;11261;52.456;10.850;2022-12-07T08:01:33;4.10;99.90
22192;DHT22;11261;52.456;10.850;2022-12-07T08:04:01;4.00;99.90
22192;DHT22;11261;52.456;10.850;2022-12-07T08:06:30;4.00;99.90
22192;DHT22;11261;52.456;10.850;2022-12-07T08:08:58;4.10;99.90
22192;DHT22;11261;52.456;10.850;2022-12-07T08:11:26;4.10;99.90
22192;DHT22;11261;52.456;10.850;2022-12-07T08:13:55;4.00;99.90
22192;DHT22;11261;52.456;10.850;2022-12-07T08:16:24;4.00;99.90
22192;DHT22;11261;52.456;10.850;2022-12-07T08:18:52;4.00;99.90
22192;DHT22;11261;52.456;10.850;2022-12-07T08:21:20;4.00;99.90
22192;DHT22;11261;52.456;10.850;2022-12-07T08:23:48;4.10;99.90
22192;DHT22;11261;52.456;10.850;2022-12-07T08:26:17;4.10;99.90
22192;DHT22;11261;52.456;10.850;2022-12-07T08:28:45;4.10;99.90
22192;DHT22;11261;52.456;10.850;2022-12-07T08:31:15;4.10;99.90
22192;DHT22;11261;52.456;10.850;2022-12-07T08:33:46;4.10;99.90
22192;DHT22;11261;52.456;10.850;2022-12-07T08:36:14;4.10;99.90
22192;DHT22;11261;52.456;10.850;2022-12-07T08:38:43;4.10;99.90
22192;DHT22;11261;52.456;10.850;2022-12-07T08:41:31;4.20;99.90
22192;DHT22;11261;52.456;10.850;2022-12-07T08:43:59;4.10;99.90
22192;DHT22;11261;52.456;10.850;2022-12-07T08:46:31;4.20;99.90
22192;DHT22;11261;52.456;10.850;2022-12-07T08:49:05;4.30;99.90
22192;DHT22;11261;52.456;10.850;2022-12-07T08:51:36;4.10;99.90
22192;DHT22;11261;52.456;10.850;2022-12-07T08:54:06;4.20;99.90
22192;DHT22;11261;52.456;10.850;2022-12-07T08:56:35;4.30;99.90
22192;DHT22;11261;52.456;10.850;2022-12-07T08:59:04;4.30;99.90
22192;DHT22;11261;52.456;10.850;2022-12-07T09:01:32;4.40;99.90
22192;DHT22;11261;52.456;10.850;2022-12-07T09:04:00;4.30;99.90
22192;DHT22;11261;52.456;10.850;2022-12-07T09:06:30;4.30;99.90
22192;DHT22;11261;52.456;10.850;2022-12-07T09:08:59;4.30;99.90
22192;DHT22;11261;52.456;10.850;2022-12-07T09:11:29;4.30;99.90
22192;DHT22;11261;52.456;10.850;2022-12-07T09:13:57;4.40;99.90
22192;DHT22;11261;52.456;10.850;2022-12-07T09:16:25;4.40;99.90
22192;DHT22;11261;52.456;10.850;2022-12-07T09:18:53;4.40;99.90
22192;DHT22;11261;52.456;10.850;2022-12-07T09:21:21;4.50;99.90
22192;DHT22;11261;52.456;10.850;2022-12-07T09:23:51;4.50;99.90
22192;DHT22;11261;52.456;10.850;2022-12-07T09:26:19;4.50;99.90
22192;DHT22;11261;52.456;10.850;2022-12-07T09:28:47;4.50;99.90
22192;DHT22;11261;52.456;10.850;2022-12-07T09:31:15;4.60;99.90
22192;DHT22;11261;52.456;10.850;2022-12-07T09:33:55;4.50;99.90
22192;DHT22;11261;52.456;10.850;2022-12-07T09:36:24;4.50;99.90
22192;DHT22;11261;52.456;10.850;2022-12-07T09:38:53;4.60;99.90
22192;DHT22;11261;52.456;10.850;2022-12-07T09:41:23;4.50;99.90
22192;DHT22;11261;52.456;10.850;2022-12-07T09:43:52;4.50;99.90
22192;DHT22;11261;52.456;10.850;2022-12-07T09:46:21;4.50;99.90
22192;DHT22;11261;52.456;10.850;2022-12-07T09:48:50;4.60;99.90
22192;DHT22;11261;52.456;10.850;2022-12-07T09:51:20;4.60;99.90
22192;DHT22;11261;52.456;10.850;2022-12-07T09:53:53;4.50;99.90
22192;DHT22;11261;52.456;10.850;2022-12-07T09:56:22;4.60;99.90
22192;DHT22;11261;52.456;10.850;2022-12-07T09:58:58;4.60;99.90
22192;DHT22;11261;52.456;10.850;2022-12-07T10:01:29;4.60;99.90
22192;DHT22;11261;52.456;10.850;2022-12-07T10:04:06;4.60;99.90
22192;DHT22;11261;52.456;10.850;2022-12-07T10:06:37;4.60;99.90
22192;DHT22;11261;52.456;10.850;2022-12-07T10:09:11;4.60;99.90
22192;DHT22;11261;52.456;10.850;2022-12-07T10:11:57;4.70;99.90
22192;DHT22;11261;52.456;10.850;2022-12-07T10:14:28;4.80;99.90
22192;DHT22;11261;52.456;10.850;2022-12-07T10:17:34;4.80;99.90
22192;DHT22;11261;52.456;10.850;2022-12-07T10:20:25;4.70;99.90
22192;DHT22;11261;52.456;10.850;2022-12-07T10:22:59;4.60;99.90
22192;DHT22;11261;52.456;10.850;2022-12-07T10:25:31;4.70;99.90
22192;DHT22;11261;52.456;10.850;2022-12-07T10:28:12;4.70;99.90
22192;DHT22;11261;52.456;10.850;2022-12-07T10:30:52;4.80;99.90
22192;DHT22;11261;52.456;10.850;2022-12-07T10:33:35;4.90;99.90
22192;DHT22;11261;52.456;10.850;2022-12-07T10:36:19;4.80;99.90
22192;DHT22;11261;52.456;10.850;2022-12-07T10:38:49;4.70;99.90
22192;DHT22;11261;52.456;10.850;2022-12-07T10:41:18;4.70;99.90
22192;DHT22;11261;52.456;10.850;2022-12-07T10:43:50;4.80;99.90
22192;DHT22;11261;52.456;10.850;2022-12-07T10:52:28;4.80;99.90
22192;DHT22;11261;52.456;10.850;2022-12-07T10:55:16;4.80;99.90
22192;DHT22;11261;52.456;10.850;2022-12-07T10:58:01;4.80;99.90
22192;DHT22;11261;52.456;10.850;2022-12-07T11:00:37;4.90;99.90
22192;DHT22;11261;52.456;10.850;2022-12-07T11:03:30;5.10;99.90
22192;DHT22;11261;52.456;10.850;2022-12-07T11:06:12;5.00;99.90
22192;DHT22;11261;52.456;10.850;2022-12-07T11:08:56;4.90;99.90
22192;DHT22;11261;52.456;10.850;2022-12-07T11:11:33;5.10;99.90
22192;DHT22;11261;52.456;10.850;2022-12-07T11:14:08;5.00;99.90
22192;DHT22;11261;52.456;10.850;2022-12-07T11:16:49;5.00;99.90
22192;DHT22;11261;52.456;10.850;2022-12-07T11:19:34;5.00;99.90
22192;DHT22;11261;52.456;10.850;2022-12-07T11:22:13;4.90;99.90
22192;DHT22;11261;52.456;10.850;2022-12-07T11:24:49;5.00;99.90
22192;DHT22;11261;52.456;10.850;2022-12-07T11:27:23;5.10;99.90
22192;DHT22;11261;52.456;10.850;2022-12-07T11:30:08;5.30;99.90
22192;DHT22;11261;52.456;10.850;2022-12-07T11:35:36;5.30;99.90
22192;DHT22;11261;52.456;10.850;2022-12-07T11:38:11;5.30;99.90
22192;DHT22;11261;52.456;10.850;2022-12-07T11:40:44;5.20;99.90
22192;DHT22;11261;52.456;10.850;2022-12-07T11:43:20;5.20;99.90
22192;DHT22;11261;52.456;10.850;2022-12-07T11:45:56;5.30;99.90
22192;DHT22;11261;52.456;10.850;2022-12-07T11:48:33;5.20;99.90
22192;DHT22;11261;52.456;10.850;2022-12-07T11:51:03;5.20;99.90
22192;DHT22;11261;52.456;10.850;2022-12-07T11:53:36;5.10;99.90
22192;DHT22;11261;52.456;10.850;2022-12-07T11:56:10;5.20;99.90
22192;DHT22;11261;52.456;10.850;2022-12-07T11:58:48;5.30;99.90
22192;DHT22;11261;52.456;10.850;2022-12-07T12:01:28;5.30;99.90
22192;DHT22;11261;52.456;10.850;2022-12-07T12:04:05;5.30;99.90
22192;DHT22;11261;52.456;10.850;2022-12-07T12:06:35;5.40;99.90
22192;DHT22;11261;52.456;10.850;2022-12-07T12:09:06;5.20;99.90
22192;DHT22;11261;52.456;10.850;2022-12-07T12:12:28;5.20;99.90
22192;DHT22;11261;52.456;10.850;2022-12-07T12:15:34;5.20;99.90
22192;DHT22;11261;52.456;10.850;2022-12-07T12:18:30;5.20;99.90
22192;DHT22;11261;52.456;10.850;2022-12-07T12:21:04;5.20;99.90
22192;DHT22;11261;52.456;10.850;2022-12-07T12:23:39;5.30;99.90
22192;DHT22;11261;52.456;10.850;2022-12-07T12:26:16;5.20;99.90
22192;DHT22;11261;52.456;10.850;2022-12-07T12:28:52;5.10;99.90
22192;DHT22;11261;52.456;10.850;2022-12-07T12:31:37;5.20;99.90
22192;DHT22;11261;52.456;10.850;2022-12-07T12:34:32;5.40;99.90
22192;DHT22;11261;52.456;10.850;2022-12-07T12:37:01;5.40;99.90
22192;DHT22;11261;52.456;10.850;2022-12-07T12:39:29;5.30;99.90
22192;DHT22;11261;52.456;10.850;2022-12-07T12:42:01;5.30;99.90
22192;DHT22;11261;52.456;10.850;2022-12-07T12:45:11;5.40;99.90
22192;DHT22;11261;52.456;10.850;2022-12-07T12:48:03;5.40;99.90
22192;DHT22;11261;52.456;10.850;2022-12-07T12:50:34;5.40;99.90
22192;DHT22;11261;52.456;10.850;2022-12-07T12:53:12;5.40;99.90
22192;DHT22;11261;52.456;10.850;2022-12-07T12:58:42;5.40;99.90
22192;DHT22;11261;52.456;10.850;2022-12-07T13:01:41;5.40;99.90
22192;DHT22;11261;52.456;10.850;2022-12-07T13:07:51;5.40;99.90
22192;DHT22;11261;52.456;10.850;2022-12-07T13:10:42;5.40;99.90
22192;DHT22;11261;52.456;10.850;2022-12-07T13:13:34;5.40;99.90
22192;DHT22;11261;52.456;10.850;2022-12-07T13:22:50;5.30;99.90
22192;DHT22;11261;52.456;10.850;2022-12-07T13:25:28;5.30;99.90
22192;DHT22;11261;52.456;10.850;2022-12-07T13:28:01;5.20;99.90
22192;DHT22;11261;52.456;10.850;2022-12-07T13:30:29;5.30;99.90
22192;DHT22;11261;52.456;10.850;2022-12-07T13:32:58;5.30;99.90
22192;DHT22;11261;52.456;10.850;2022-12-07T13:35:32;5.30;99.90
22192;DHT22;11261;52.456;10.850;2022-12-07T13:38:05;5.30;99.90
22192;DHT22;11261;52.456;10.850;2022-12-07T13:40:34;5.30;99.90
22192;DHT22;11261;52.456;10.850;2022-12-07T13:43:04;5.30;99.90
22192;DHT22;11261;52.456;10.850;2022-12-07T13:45:33;5.40;99.90
22192;DHT22;11261;52.456;10.850;2022-12-07T13:48:22;5.30;99.90
22192;DHT22;11261;52.456;10.850;2022-12-07T13:50:54;5.20;99.90
22192;DHT22;11261;52.456;10.850;2022-12-07T13:53:24;5.20;99.90
22192;DHT22;11261;52.456;10.850;2022-12-07T13:55:55;5.30;99.90
22192;DHT22;11261;52.456;10.850;2022-12-07T13:58:24;5.50;99.90
22192;DHT22;11261;52.456;10.850;2022-12-07T14:00:52;5.30;99.90
22192;DHT22;11261;52.456;10.850;2022-12-07T14:03:27;5.20;99.90
22192;DHT22;11261;52.456;10.850;2022-12-07T14:06:13;5.30;99.90
22192;DHT22;11261;52.456;10.850;2022-12-07T14:08:43;5.20;99.90
22192;DHT22;11261;52.456;10.850;2022-12-07T14:11:16;5.10;99.90
22192;DHT22;11261;52.456;10.850;2022-12-07T14:13:51;5.20;99.90
22192;DHT22;11261;52.456;10.850;2022-12-07T14:16:26;5.10;99.90
22192;DHT22;11261;52.456;10.850;2022-12-07T14:18:56;5.10;99.90
22192;DHT22;11261;52.456;10.850;2022-12-07T14:21:27;5.10;99.90
22192;DHT22;11261;52.456;10.850;2022-12-07T14:24:19;5.10;99.90
22192;DHT22;11261;52.456;10.850;2022-12-07T14:26:49;5.00;99.90
22192;DHT22;11261;52.456;10.850;2022-12-07T14:29:35;5.00;99.90
22192;DHT22;11261;52.456;10.850;2022-12-07T14:32:21;5.10;99.90
22192;DHT22;11261;52.456;10.850;2022-12-07T14:34:55;5.10;99.90
22192;DHT22;11261;52.456;10.850;2022-12-07T14:37:24;5.20;99.90
22192;DHT22;11261;52.456;10.850;2022-12-07T14:39:53;5.20;99.90
22192;DHT22;11261;52.456;10.850;2022-12-07T14:42:23;5.00;99.90
22192;DHT22;11261;52.456;10.850;2022-12-07T14:44:52;5.00;99.90
22192;DHT22;11261;52.456;10.850;2022-12-07T14:47:20;4.90;99.90
22192;DHT22;11261;52.456;10.850;2022-12-07T14:50:12;4.80;99.90
22192;DHT22;11261;52.456;10.850;2022-12-07T14:52:42;4.80;99.90
22192;DHT22;11261;52.456;10.850;2022-12-07T14:55:32;4.70;99.90
22192;DHT22;11261;52.456;10.850;2022-12-07T14:58:00;4.70;99.90
22192;DHT22;11261;52.456;10.850;2022-12-07T15:00:28;4.70;99.90
22192;DHT22;11261;52.456;10.850;2022-12-07T15:02:57;4.60;99.90
22192;DHT22;11261;52.456;10.850;2022-12-07T15:05:25;4.40;99.90
22192;DHT22;11261;52.456;10.850;2022-12-07T15:07:53;4.30;99.90
22192;DHT22;11261;52.456;10.850;2022-12-07T15:10:24;4.40;99.90
22192;DHT22;11261;52.456;10.850;2022-12-07T15:12:57;4.20;99.90
22192;DHT22;11261;52.456;10.850;2022-12-07T15:15:47;4.10;99.90
22192;DHT22;11261;52.456;10.850;2022-12-07T15:18:16;4.20;99.90
22192;DHT22;11261;52.456;10.850;2022-12-07T15:20:44;4.10;99.90
22192;DHT22;11261;52.456;10.850;2022-12-07T15:23:13;4.20;99.90
22192;DHT22;11261;52.456;10.850;2022-12-07T15:25:41;4.10;99.90
22192;DHT22;11261;52.456;10.850;2022-12-07T15:28:10;4.00;99.90
22192;DHT22;11261;52.456;10.850;2022-12-07T15:30:39;4.10;99.90
22192;DHT22;11261;52.456;10.850;2022-12-07T15:33:09;3.80;99.90
22192;DHT22;11261;52.456;10.850;2022-12-07T15:35:38;3.80;99.90
22192;DHT22;11261;52.456;10.850;2022-12-07T15:38:07;3.70;99.90
22192;DHT22;11261;52.456;10.850;2022-12-07T15:40:35;3.70;99.90
22192;DHT22;11261;52.456;10.850;2022-12-07T15:43:03;3.70;99.90
22192;DHT22;11261;52.456;10.850;2022-12-07T15:45:53;3.80;99.90
22192;DHT22;11261;52.456;10.850;2022-12-07T15:48:20;3.70;99.90
22192;DHT22;11261;52.456;10.850;2022-12-07T15:51:02;3.70;99.90
22192;DHT22;11261;52.456;10.850;2022-12-07T15:53:30;3.70;99.90
22192;DHT22;11261;52.456;10.850;2022-12-07T15:55:58;3.70;99.90
22192;DHT22;11261;52.456;10.850;2022-12-07T15:58:27;3.50;99.90
22192;DHT22;11261;52.456;10.850;2022-12-07T16:00:56;3.50;99.90
22192;DHT22;11261;52.456;10.850;2022-12-07T16:03:24;3.70;99.90
22192;DHT22;11261;52.456;10.850;2022-12-07T16:05:53;3.40;99.90
22192;DHT22;11261;52.456;10.850;2022-12-07T16:08:21;3.60;99.90
22192;DHT22;11261;52.456;10.850;2022-12-07T16:10:49;3.60;99.90
22192;DHT22;11261;52.456;10.850;2022-12-07T16:13:17;3.70;99.90
22192;DHT22;11261;52.456;10.850;2022-12-07T16:15:46;3.80;99.90
22192;DHT22;11261;52.456;10.850;2022-12-07T16:18:15;3.80;99.90
22192;DHT22;11261;52.456;10.850;2022-12-07T16:20:47;3.80;99.90
22192;DHT22;11261;52.456;10.850;2022-12-07T16:23:15;3.60;99.90
22192;DHT22;11261;52.456;10.850;2022-12-07T16:25:43;3.50;99.90
22192;DHT22;11261;52.456;10.850;2022-12-07T16:28:11;3.40;99.90
22192;DHT22;11261;52.456;10.850;2022-12-07T16:30:39;3.50;99.90